Time;durP1;ratioP1;P1;durP2;ratioP2;P2;SDS_P1;SDS_P2;PMS_P1;PMS_P2;Temp;Humidity;BMP_temperature;BMP_pressure;BME280_temperature;BME280_humidity;BME280_pressure;Samples;Min_cycle;Max_cycle;Signal;HPM_P1;HPM_P2
2021/12/02 00:01:51;;;;;;;22.00;6.25;;;;;;;1.73;79.06;100918.98;1860198;77;21135;-62
2021/12/02 00:04:20;;;;;;;9.00;4.45;;;;;;;1.76;79.15;100923.30;1860291;77;21539;-63
2021/12/02 00:06:49;;;;;;;15.20;4.83;;;;;;;1.80;79.09;100926.77;1860338;77;21548;-62
2021/12/02 00:09:18;;;;;;;14.58;4.12;;;;;;;1.81;78.99;100921.58;1856036;76;21135;-65
2021/12/02 00:11:46;;;;;;;12.30;4.12;;;;;;;1.83;78.83;100927.64;1839518;77;21033;-62
2021/12/02 00:14:22;;;;;;;14.58;4.58;;;;;;;1.85;78.81;100936.29;1859749;77;21135;-64
2021/12/02 00:22:17;;;;;;;9.95;4.05;;;;;;;1.76;79.11;100941.48;1853988;76;21065;-62
2021/12/02 00:24:48;;;;;;;19.50;5.85;;;;;;;1.66;79.14;100946.22;1849672;76;21158;-61
2021/12/02 00:27:19;;;;;;;16.23;5.70;;;;;;;1.58;79.08;100958.34;1847136;76;21605;-63
2021/12/02 00:29:48;;;;;;;16.55;6.45;;;;;;;1.52;79.27;100960.48;1868805;76;21081;-63
2021/12/02 00:32:19;;;;;;;21.12;5.95;;;;;;;1.50;79.76;100975.20;1877721;76;21541;-63
2021/12/02 00:34:48;;;;;;;16.00;6.72;;;;;;;1.48;79.69;100972.59;1884959;76;21113;-63
2021/12/02 00:37:17;;;;;;;13.22;5.15;;;;;;;1.47;79.92;100976.03;1902959;74;21037;-66
2021/12/02 00:39:47;;;;;;;11.90;6.00;;;;;;;1.47;79.58;100977.77;1918201;74;21116;-65
2021/12/02 00:42:16;;;;;;;16.32;6.17;;;;;;;1.44;79.30;100982.54;1879388;75;21156;-62
2021/12/02 00:44:46;;;;;;;12.00;5.08;;;;;;;1.40;79.17;100982.07;1884388;75;21110;-63
2021/12/02 00:47:16;;;;;;;12.88;5.40;;;;;;;1.37;79.08;100986.41;1880665;76;21786;-64
2021/12/02 00:49:47;;;;;;;24.35;6.37;;;;;;;1.34;79.05;100982.06;1880789;76;21038;-64
2021/12/02 00:52:16;;;;;;;20.72;6.83;;;;;;;1.37;79.10;100992.91;1886458;76;21046;-62
2021/12/02 00:54:47;;;;;;;17.37;5.22;;;;;;;1.38;79.18;100994.17;1886136;76;21493;-65
2021/12/02 00:57:16;;;;;;;10.43;3.58;;;;;;;1.41;79.28;101004.58;1886057;75;21014;-63
2021/12/02 00:59:48;;;;;;;9.80;4.45;;;;;;;1.41;79.24;100994.20;1885998;76;21145;-60
2021/12/02 01:02:18;;;;;;;11.38;4.90;;;;;;;1.41;79.13;100994.20;1884478;75;21488;-61
2021/12/02 01:04:48;;;;;;;7.35;3.10;;;;;;;1.39;79.02;100998.96;1873461;76;21120;-61
2021/12/02 01:07:18;;;;;;;13.20;5.03;;;;;;;1.39;79.02;101008.04;1873218;76;21050;-62
2021/12/02 01:09:49;;;;;;;6.35;3.35;;;;;;;1.35;79.17;101007.16;1873254;76;21536;-61
2021/12/02 01:12:18;;;;;;;7.53;3.70;;;;;;;1.34;79.46;101017.09;1873187;76;21055;-63
2021/12/02 01:14:47;;;;;;;10.20;4.83;;;;;;;1.34;79.55;101021.84;1873303;76;21058;-60
2021/12/02 01:17:16;;;;;;;18.82;10.48;;;;;;;1.34;79.32;101020.98;1873194;76;21074;-65
2021/12/02 01:19:45;;;;;;;14.45;9.70;;;;;;;1.34;79.40;101022.28;1873192;76;21070;-65
2021/12/02 01:22:15;;;;;;;15.10;8.20;;;;;;;1.33;79.33;101021.86;1873481;76;21504;-72
2021/12/02 01:24:46;;;;;;;11.75;7.35;;;;;;;1.31;79.29;101019.66;1873068;76;21748;-65
2021/12/02 01:27:15;;;;;;;7.92;4.35;;;;;;;1.27;79.27;101017.93;1873231;76;21501;-63
2021/12/02 01:29:44;;;;;;;6.92;3.70;;;;;;;1.21;79.33;101021.37;1873203;76;21563;-67
2021/12/02 01:32:14;;;;;;;11.22;4.92;;;;;;;1.19;79.65;101023.53;1873181;76;21075;-63
2021/12/02 01:34:45;;;;;;;10.95;4.35;;;;;;;1.15;79.84;101017.02;1873147;76;21555;-65
2021/12/02 01:37:15;;;;;;;12.85;4.90;;;;;;;1.14;79.53;101020.50;1881848;76;21129;-65
2021/12/02 01:39:45;;;;;;;7.87;4.25;;;;;;;1.12;79.38;101023.48;1877632;74;21147;-64
2021/12/02 01:42:18;;;;;;;25.90;6.78;;;;;;;1.13;79.35;101026.53;1871231;74;21015;-61
2021/12/02 01:44:49;;;;;;;10.10;4.55;;;;;;;1.11;79.27;101029.55;1860776;77;21066;-60
2021/12/02 01:47:20;;;;;;;6.97;3.90;;;;;;;1.06;79.21;101036.87;1862403;76;21116;-61
2021/12/02 01:50:10;;;;;;;7.67;2.77;;;;;;;1.00;79.35;101036.42;1861242;76;21092;-61
2021/12/02 01:52:42;;;;;;;6.92;3.37;;;;;;;0.98;79.39;101045.92;1911453;74;21014;-61
2021/12/02 01:55:14;;;;;;;11.55;5.20;;;;;;;0.98;79.32;101043.73;1913629;74;21082;-60
2021/12/02 01:57:45;;;;;;;7.65;2.92;;;;;;;0.98;79.50;101036.84;1904871;74;21002;-60
2021/12/02 02:00:19;;;;;;;11.03;4.28;;;;;;;1.03;80.05;101033.81;1908971;74;21590;-60
2021/12/02 02:02:48;;;;;;;;;;;;;;;1.05;79.88;101039.02;1926476;74;21477;-59
2021/12/02 02:05:18;;;;;;;20.25;5.83;;;;;;;1.09;79.99;101041.65;1888461;74;20116;-58
2021/12/02 02:08:17;;;;;;;7.50;3.00;;;;;;;1.05;79.95;101045.09;1901122;74;21026;-59
2021/12/02 02:10:46;;;;;;;7.78;3.35;;;;;;;1.06;79.94;101050.70;1901103;74;21112;-60
2021/12/02 02:13:17;;;;;;;13.53;5.03;;;;;;;1.05;79.79;101058.06;1896142;74;21032;-58
2021/12/02 02:15:49;;;;;;;8.68;4.62;;;;;;;1.03;79.76;101057.16;1901273;74;21109;-62
2021/12/02 02:18:21;;;;;;;5.53;3.00;;;;;;;1.04;80.22;101053.72;1885866;74;21050;-61
2021/12/02 02:21:01;;;;;;;5.50;2.75;;;;;;;1.02;80.23;101050.25;1913280;74;21037;-62
2021/12/02 02:23:32;;;;;;;8.53;3.30;;;;;;;1.04;80.32;101061.50;1910690;74;21236;-61
2021/12/02 02:26:01;;;;;;;7.80;3.47;;;;;;;1.03;80.17;101058.89;1910619;74;21162;-61
2021/12/02 02:28:30;;;;;;;11.48;3.65;;;;;;;1.02;80.16;101058.03;1896918;74;21029;-61
2021/12/02 02:30:59;;;;;;;9.33;4.33;;;;;;;1.01;80.51;101056.28;1897868;74;21156;-61
2021/12/02 02:33:37;;;;;;;16.32;9.50;;;;;;;1.02;80.48;101067.11;1911139;74;21449;-61
2021/12/02 02:36:09;;;;;;;15.75;9.53;;;;;;;1.02;80.36;101065.81;1890435;74;21441;-59
2021/12/02 02:38:38;;;;;;;12.85;6.10;;;;;;;1.00;80.55;101070.13;1927519;74;21101;-62
2021/12/02 02:41:10;;;;;;;6.92;4.80;;;;;;;0.99;80.41;101076.16;1925395;74;21026;-60
2021/12/02 02:43:37;;;;;;;5.15;2.60;;;;;;;0.94;80.34;101070.96;1936220;74;21115;-60
2021/12/02 02:46:06;;;;;;;11.08;4.70;;;;;;;0.88;80.25;101079.12;1936268;74;21661;-59
2021/12/02 02:48:35;;;;;;;5.92;3.45;;;;;;;0.80;80.40;101084.70;1934408;74;21099;-58
2021/12/02 02:51:04;;;;;;;5.90;2.85;;;;;;;0.75;80.46;101095.02;1934731;74;21077;-58
2021/12/02 02:53:34;;;;;;;7.80;3.47;;;;;;;0.70;80.42;101101.89;1926540;74;21062;-59
2021/12/02 02:56:10;;;;;;;11.85;6.05;;;;;;;0.69;80.45;101099.73;1926697;74;21042;-59
2021/12/02 03:06:51;;;;;;;11.85;6.00;;;;;;;0.78;80.90;101112.34;1926504;74;21484;-59
2021/12/02 03:09:50;;;;;;;14.35;7.17;;;;;;;0.81;81.07;101112.34;1925898;74;21108;-58
2021/12/02 03:11:53;;;;;;;20.25;11.05;;;;;;;0.83;81.04;101111.92;1921107;74;21038;-60
2021/12/02 03:14:33;;;;;;;13.75;6.40;;;;;;;0.85;81.35;101120.57;1910545;74;21058;-61
2021/12/02 03:16:58;;;;;;;10.48;5.92;;;;;;;0.86;81.07;101123.62;1899972;75;21038;-63
2021/12/02 03:19:29;;;;;;;10.25;4.87;;;;;;;0.86;81.17;101132.69;1900513;75;21100;-61
2021/12/02 03:21:58;;;;;;;11.05;5.30;;;;;;;0.86;81.03;101135.28;1900566;75;21035;-60
2021/12/02 03:24:27;;;;;;;12.60;3.85;;;;;;;0.88;81.04;101133.56;1905000;74;21050;-58
2021/12/02 03:26:56;;;;;;;10.55;4.30;;;;;;;0.89;80.96;101142.66;1906596;75;21186;-59
2021/12/02 03:29:25;;;;;;;9.83;4.65;;;;;;;0.91;80.91;101151.31;1906663;75;21006;-59
2021/12/02 03:31:53;;;;;;;9.40;4.60;;;;;;;0.93;80.81;101149.59;1906402;75;21527;-59
2021/12/02 03:34:22;;;;;;;10.80;5.85;;;;;;;0.92;80.63;101158.25;1906485;75;21058;-59
2021/12/02 03:36:51;;;;;;;11.15;5.20;;;;;;;0.92;80.53;101167.73;1906493;75;21560;-59
2021/12/02 03:39:26;;;;;;;18.20;7.47;;;;;;;0.89;80.54;101175.50;1925031;74;21053;-59
2021/12/02 03:41:51;;;;;;;15.30;6.17;;;;;;;0.86;80.67;101165.95;1925823;74;21182;-59
2021/12/02 03:44:21;;;;;;;18.25;7.15;;;;;;;0.83;80.54;101172.44;1926456;74;21038;-59
2021/12/02 03:46:52;;;;;;;15.68;6.12;;;;;;;0.74;80.58;101169.77;1926648;74;21030;-59
2021/12/02 03:49:20;;;;;;;12.15;5.15;;;;;;;0.71;80.71;101176.22;1924338;74;21021;-60
2021/12/02 03:51:50;;;;;;;15.78;7.55;;;;;;;0.71;80.55;101173.19;1926475;74;21123;-60
2021/12/02 03:54:19;;;;;;;12.40;6.20;;;;;;;0.69;80.56;101172.31;1926838;74;21033;-59
2021/12/02 03:56:48;;;;;;;15.23;6.55;;;;;;;0.73;80.51;101189.62;1926426;74;21050;-59
2021/12/02 03:59:17;;;;;;;13.03;5.58;;;;;;;0.76;80.47;101188.36;1926570;74;21054;-61
2021/12/02 04:01:46;;;;;;;10.25;4.15;;;;;;;0.80;80.41;101190.55;1926643;74;21022;-58
2021/12/02 04:04:15;;;;;;;8.35;4.85;;;;;;;0.87;80.51;101194.07;1924616;74;21115;-59
2021/12/02 04:06:45;;;;;;;14.33;5.90;;;;;;;0.93;80.47;101198.00;1926570;74;21073;-59
2021/12/02 04:09:19;;;;;;;14.95;5.58;;;;;;;1.02;80.44;101197.21;1926424;74;21077;-59
2021/12/02 04:11:58;;;;;;;8.25;2.80;;;;;;;1.10;80.36;101205.91;1926045;74;21116;-59
2021/12/02 04:14:28;;;;;;;10.70;3.95;;;;;;;1.17;80.37;101201.64;1923907;74;21002;-60
2021/12/02 04:17:05;;;;;;;9.65;3.25;;;;;;;1.24;80.33;101200.83;1926032;74;21046;-60
2021/12/02 04:19:24;;;;;;;15.72;6.62;;;;;;;1.29;80.17;101195.21;1923934;74;21042;-59
2021/12/02 04:21:54;;;;;;;6.20;4.12;;;;;;;1.30;80.00;101196.97;1926511;74;21520;-60
2021/12/02 04:24:23;;;;;;;13.03;4.75;;;;;;;1.29;79.85;101206.48;1924629;74;20994;-59
2021/12/02 04:26:51;;;;;;;18.52;8.38;;;;;;;1.29;79.84;101208.19;1926559;74;21105;-60
2021/12/02 04:29:23;;;;;;;20.92;8.25;;;;;;;1.30;79.94;101211.23;1926565;74;21066;-59
2021/12/02 04:31:51;;;;;;;16.48;6.55;;;;;;;1.32;79.88;101219.89;1926538;74;21045;-59
2021/12/02 04:34:21;;;;;;;15.23;6.30;;;;;;;1.32;79.72;101218.59;1926061;74;21061;-61
2021/12/02 04:36:49;;;;;;;25.50;8.65;;;;;;;1.33;79.60;101233.31;1925717;74;21477;-59
2021/12/02 04:39:20;;;;;;;25.80;6.78;;;;;;;1.36;79.66;101238.51;1926538;74;21111;-59
2021/12/02 04:41:49;;;;;;;17.92;6.67;;;;;;;1.43;79.74;101246.77;1926681;74;21026;-59
2021/12/02 04:44:18;;;;;;;8.08;4.50;;;;;;;1.47;79.78;101247.66;1926679;74;21037;-59
2021/12/02 04:46:49;;;;;;;10.43;4.15;;;;;;;1.51;79.80;101255.50;1924042;74;21017;-59
2021/12/02 04:49:18;;;;;;;8.58;4.25;;;;;;;1.56;79.74;101255.95;1926638;74;21037;-58
2021/12/02 04:51:46;;;;;;;13.13;4.40;;;;;;;1.61;79.68;101261.61;1926515;74;21097;-59
2021/12/02 04:54:16;;;;;;;10.30;4.60;;;;;;;1.65;79.64;101260.77;1905602;75;21006;-59
2021/12/02 04:56:45;;;;;;;7.17;3.58;;;;;;;1.72;79.62;101269.47;1909298;75;21007;-58
2021/12/02 04:59:14;;;;;;;9.75;2.87;;;;;;;1.80;79.55;101267.77;1909322;75;21507;-59
2021/12/02 05:01:43;;;;;;;8.78;5.00;;;;;;;1.83;79.43;101266.49;1914434;75;21484;-59
2021/12/02 05:04:11;;;;;;;15.45;5.12;;;;;;;1.90;79.35;101270.86;1921406;75;21621;-58
2021/12/02 05:06:40;;;;;;;10.28;4.67;;;;;;;2.01;79.23;101275.23;1921366;75;21062;-59
2021/12/02 05:09:08;;;;;;;11.57;5.08;;;;;;;2.05;79.06;101286.09;1921393;75;21085;-59
2021/12/02 05:11:40;;;;;;;16.12;8.03;;;;;;;2.04;78.96;101289.54;1920502;75;21030;-59
2021/12/02 05:14:09;;;;;;;14.43;7.17;;;;;;;2.02;78.84;101288.66;1921416;75;21515;-58
2021/12/02 05:16:40;;;;;;;14.80;5.85;;;;;;;2.01;78.80;101292.11;1921322;75;21444;-59
2021/12/02 05:19:08;;;;;;;11.97;4.30;;;;;;;2.20;78.77;101298.28;1921509;75;21092;-59
2021/12/02 05:21:37;;;;;;;7.62;3.00;;;;;;;2.38;78.63;101300.95;1920496;75;20991;-58
2021/12/02 05:24:06;;;;;;;7.22;4.17;;;;;;;2.43;78.36;101300.95;1921441;75;21002;-60
2021/12/02 05:26:35;;;;;;;10.28;3.30;;;;;;;2.54;78.11;101303.59;1921310;75;21461;-59
2021/12/02 05:29:05;;;;;;;5.10;2.87;;;;;;;3.07;77.63;101307.59;1921616;75;21421;-59
2021/12/02 05:31:34;;;;;;;7.80;3.95;;;;;;;3.73;76.32;101302.81;1921447;75;21054;-60
2021/12/02 05:34:02;;;;;;;9.65;4.50;;;;;;;4.39;74.71;101296.09;1921490;75;21105;-59
2021/12/02 05:36:31;;;;;;;11.30;4.92;;;;;;;5.08;73.56;101301.77;1920556;75;21115;-58
2021/12/02 05:39:00;;;;;;;11.40;4.78;;;;;;;5.67;72.28;101295.61;1921426;75;21058;-58
2021/12/02 05:41:31;;;;;;;8.10;3.87;;;;;;;6.32;71.89;101306.23;1921609;75;21053;-58
2021/12/02 05:44:00;;;;;;;4.87;2.75;;;;;;;7.08;71.39;101312.60;1921491;75;21034;-58
2021/12/02 05:46:30;;;;;;;8.55;3.62;;;;;;;7.79;70.96;101306.19;1921124;74;21453;-59
2021/12/02 05:48:59;;;;;;;10.63;4.22;;;;;;;8.38;69.84;101310.70;1921458;75;21111;-58
2021/12/02 05:51:28;;;;;;;14.05;5.53;;;;;;;8.82;69.37;101318.10;1921358;74;21066;-59
2021/12/02 05:53:57;;;;;;;8.75;4.58;;;;;;;9.18;67.77;101331.27;1923704;74;21026;-60
2021/12/02 05:56:26;;;;;;;7.42;4.42;;;;;;;9.40;66.26;101324.19;1926654;74;21100;-59
2021/12/02 05:58:55;;;;;;;8.78;4.50;;;;;;;9.65;65.40;101332.33;1924361;74;21084;-60
2021/12/02 06:01:24;;;;;;;11.60;3.70;;;;;;;10.09;64.59;101342.13;1926613;74;21057;-60
2021/12/02 06:03:53;;;;;;;8.98;3.85;;;;;;;10.51;62.17;101340.55;1926507;74;21509;-60
2021/12/02 06:06:27;;;;;;;10.15;4.20;;;;;;;11.08;61.45;101342.75;1926650;74;21039;-60
2021/12/02 06:08:53;;;;;;;11.63;3.90;;;;;;;11.65;60.58;101351.91;1925903;74;21117;-58
2021/12/02 06:11:23;;;;;;;10.45;4.28;;;;;;;11.25;59.55;101352.78;1926826;74;21124;-58
2021/12/02 06:13:51;;;;;;;8.58;4.85;;;;;;;10.57;60.67;101356.15;1903018;74;21603;-59
2021/12/02 06:16:21;;;;;;;8.85;4.53;;;;;;;10.08;61.54;101354.00;1901319;74;21527;-60
2021/12/02 06:18:51;;;;;;;11.33;5.37;;;;;;;9.55;61.95;101365.00;1893718;76;21087;-59
2021/12/02 06:21:20;;;;;;;10.82;5.35;;;;;;;8.99;62.35;101365.45;1893716;76;21453;-59
2021/12/02 06:23:49;;;;;;;8.78;4.12;;;;;;;8.56;62.92;101367.24;1916796;74;21046;-59
2021/12/02 06:26:17;;;;;;;13.45;5.45;;;;;;;8.18;63.18;101374.06;1926603;74;21554;-58
2021/12/02 06:28:46;;;;;;;10.63;5.50;;;;;;;7.77;63.57;101380.08;1926595;74;21526;-59
2021/12/02 06:31:15;;;;;;;13.28;6.00;;;;;;;7.38;64.10;101380.70;1926531;74;21030;-58
2021/12/02 06:33:44;;;;;;;15.15;5.80;;;;;;;7.14;64.42;101381.93;1926733;74;21037;-60
2021/12/02 06:36:12;;;;;;;13.32;4.95;;;;;;;6.93;64.58;101383.97;1926681;74;21065;-60
2021/12/02 06:38:42;;;;;;;13.75;5.58;;;;;;;6.79;64.79;101385.01;1906617;74;21128;-60
2021/12/02 06:41:11;;;;;;;8.75;4.92;;;;;;;6.84;64.96;101384.09;1900605;75;21038;-60
2021/12/02 06:43:40;;;;;;;12.65;5.30;;;;;;;7.53;64.09;101392.69;1923977;74;21459;-61
2021/12/02 06:46:09;;;;;;;10.43;4.87;;;;;;;8.30;62.92;101388.73;1926616;74;21026;-60
2021/12/02 06:48:38;;;;;;;17.80;5.58;;;;;;;9.27;61.49;101387.55;1924679;74;21581;-61
2021/12/02 06:51:09;;;;;;;14.10;7.28;;;;;;;10.57;59.97;101393.02;1926601;74;21120;-59
2021/12/02 06:53:37;;;;;;;15.95;6.60;;;;;;;11.70;58.13;101395.69;1926203;74;21042;-58
2021/12/02 06:56:07;;;;;;;16.70;5.75;;;;;;;12.88;56.80;101385.81;1905874;74;21114;-58
2021/12/02 06:58:35;;;;;;;15.18;5.60;;;;;;;13.92;55.42;101385.19;1900553;75;21496;-60
2021/12/02 07:01:04;;;;;;;12.03;5.08;;;;;;;13.75;54.25;101382.79;1900584;75;21120;-60
2021/12/02 07:03:33;;;;;;;9.78;4.22;;;;;;;13.09;54.92;101389.40;1902241;74;21606;-59
2021/12/02 07:06:02;;;;;;;12.45;4.67;;;;;;;12.51;55.41;101395.12;1900786;75;21046;-59
2021/12/02 07:08:31;;;;;;;18.50;5.75;;;;;;;11.88;55.38;101394.21;1900473;75;21031;-61
2021/12/02 07:11:04;;;;;;;14.03;5.97;;;;;;;11.73;56.07;101392.07;1900606;75;21441;-60
2021/12/02 07:13:31;;;;;;;11.73;4.92;;;;;;;12.05;55.71;101391.02;1900351;75;21045;-60
2021/12/02 07:16:00;;;;;;;11.65;5.12;;;;;;;13.22;54.47;101392.42;1900615;75;21116;-60
2021/12/02 07:18:34;;;;;;;12.63;5.67;;;;;;;14.48;51.66;101392.45;1910766;74;21562;-60
2021/12/02 07:20:59;;;;;;;15.20;6.80;;;;;;;15.23;49.29;101401.36;1925939;74;21045;-61
2021/12/02 07:23:28;;;;;;;15.83;7.47;;;;;;;15.76;47.95;101399.23;1926572;74;21073;-60
2021/12/02 07:28:48;;;;;;;11.85;6.87;;;;;;;16.79;45.71;101403.63;1888671;76;21517;-57
2021/12/02 07:31:17;;;;;;;10.65;4.85;;;;;;;17.43;45.69;101398.31;1888571;76;21426;-57
2021/12/02 07:33:50;;;;;;;10.13;4.55;;;;;;;18.00;45.25;101409.23;1888514;76;21138;-58
2021/12/02 07:36:20;;;;;;;14.05;6.30;;;;;;;18.38;42.91;101402.03;1890757;75;21545;-57
2021/12/02 07:38:49;;;;;;;10.90;5.45;;;;;;;18.67;42.31;101407.39;1888574;76;21460;-57
2021/12/02 07:41:18;;;;;;;6.87;3.25;;;;;;;18.89;41.84;101402.44;1888586;76;21569;-57
2021/12/02 07:43:47;;;;;;;7.10;3.75;;;;;;;18.88;40.50;101403.37;1888592;76;21127;-58
2021/12/02 07:46:16;;;;;;;7.97;3.17;;;;;;;18.97;39.10;101400.61;1890665;75;21190;-59
2021/12/02 07:48:45;;;;;;;4.95;2.12;;;;;;;19.20;39.28;101399.14;1888615;76;21065;-59
2021/12/02 07:51:16;;;;;;;4.67;2.55;;;;;;;19.81;38.68;101390.73;1888561;76;21396;-59
2021/12/02 07:53:48;;;;;;;6.17;1.95;;;;;;;20.21;37.75;101398.67;1888546;76;21114;-59
2021/12/02 07:56:19;;;;;;;5.17;1.30;;;;;;;19.96;37.94;101400.85;1890272;75;21119;-59
2021/12/02 07:58:49;;;;;;;3.08;1.10;;;;;;;19.43;36.69;101397.62;1888687;76;21137;-60
2021/12/02 08:01:19;;;;;;;4.97;1.20;;;;;;;19.55;35.86;101395.97;1888594;76;21109;-59
2021/12/02 08:03:48;;;;;;;4.80;1.05;;;;;;;19.82;35.19;101387.92;1888567;76;21536;-59
2021/12/02 08:06:17;;;;;;;3.40;1.30;;;;;;;19.82;34.16;101389.75;1888771;76;21058;-60
2021/12/02 08:08:47;;;;;;;2.17;0.88;;;;;;;19.91;34.73;101389.61;1890772;75;21452;-60
2021/12/02 08:11:16;;;;;;;3.95;1.10;;;;;;;19.73;33.17;101373.85;1888532;76;21053;-60
2021/12/02 08:13:50;;;;;;;3.65;1.00;;;;;;;19.78;33.03;101382.42;1918526;75;21125;-60
2021/12/02 08:16:15;;;;;;;3.05;0.95;;;;;;;19.76;32.89;101374.14;1921168;74;21067;-61
2021/12/02 08:18:44;;;;;;;1.17;0.68;;;;;;;19.65;33.37;101374.34;1918963;75;21056;-60
2021/12/02 08:21:13;;;;;;;3.77;0.80;;;;;;;19.69;33.27;101377.66;1921512;75;21121;-61
2021/12/02 08:23:42;;;;;;;2.15;0.78;;;;;;;18.09;34.47;101377.16;1921374;75;21574;-58
2021/12/02 08:26:13;;;;;;;5.08;1.27;;;;;;;16.04;37.11;101385.87;1921271;74;21046;-60
2021/12/02 08:28:41;;;;;;;2.77;1.10;;;;;;;14.37;39.93;101395.57;1925505;74;21081;-59
2021/12/02 08:31:10;;;;;;;1.47;1.17;;;;;;;12.97;43.76;101407.93;1923626;74;21030;-59
2021/12/02 08:33:38;;;;;;;1.57;0.80;;;;;;;11.87;47.36;101415.37;1919350;74;21083;-58
2021/12/02 08:36:07;;;;;;;3.80;0.78;;;;;;;11.03;50.50;101416.27;1919002;74;21104;-59
2021/12/02 08:38:36;;;;;;;1.67;0.70;;;;;;;10.61;52.31;101402.55;1912864;74;21428;-59
2021/12/02 08:41:05;;;;;;;3.12;0.88;;;;;;;11.25;52.49;101404.62;1930674;74;21432;-58
2021/12/02 08:43:34;;;;;;;1.12;0.88;;;;;;;13.06;49.55;101389.07;1882578;74;21114;-58
2021/12/02 08:46:03;;;;;;;2.65;0.72;;;;;;;15.37;46.08;101386.97;1881166;76;21493;-58
2021/12/02 08:48:32;;;;;;;2.20;0.70;;;;;;;16.83;43.24;101384.40;1881094;76;21130;-59
2021/12/02 08:51:00;;;;;;;1.27;0.70;;;;;;;17.67;41.53;101376.95;1883724;76;21074;-58
2021/12/02 08:53:29;;;;;;;1.57;0.82;;;;;;;18.18;40.82;101381.08;1891824;76;21062;-59
2021/12/02 08:55:58;;;;;;;2.22;0.95;;;;;;;18.77;39.93;101376.49;1889191;76;21184;-58
2021/12/02 08:58:27;;;;;;;2.50;1.20;;;;;;;18.96;39.04;101386.02;1893444;76;21535;-58
2021/12/02 09:00:56;;;;;;;2.37;1.00;;;;;;;18.27;40.08;101381.84;1892771;75;21052;-59
2021/12/02 09:03:25;;;;;;;2.25;0.90;;;;;;;16.01;42.61;101379.41;1893890;76;21172;-59
2021/12/02 09:05:54;;;;;;;2.00;1.20;;;;;;;14.34;45.57;101377.62;1891150;74;21047;-62
2021/12/02 09:08:24;;;;;;;3.72;0.85;;;;;;;13.29;47.69;101386.82;1888356;76;21106;-62
2021/12/02 09:10:53;;;;;;;1.70;0.70;;;;;;;12.57;49.44;101392.72;1887862;76;21105;-61
2021/12/02 09:13:22;;;;;;;0.80;0.80;;;;;;;12.29;50.52;101380.52;1889931;76;21157;-60
2021/12/02 09:15:51;;;;;;;0.85;0.70;;;;;;;12.16;51.11;101382.27;1889040;76;21248;-60
2021/12/02 09:18:20;;;;;;;2.42;1.10;;;;;;;11.85;51.99;101389.03;1883563;76;21443;-60
2021/12/02 09:20:49;;;;;;;3.20;0.82;;;;;;;11.75;52.61;101381.03;1881936;76;21015;-61
2021/12/02 09:23:17;;;;;;;2.42;0.80;;;;;;;11.68;52.80;101383.01;1881143;76;21043;-62
2021/12/02 09:25:46;;;;;;;1.70;1.05;;;;;;;11.52;53.46;101378.69;1881135;76;21470;-65
2021/12/02 09:28:16;;;;;;;2.58;1.10;;;;;;;11.40;53.75;101379.11;1878685;76;21091;-60
2021/12/02 09:30:45;;;;;;;3.10;1.20;;;;;;;11.28;53.86;101376.84;1876883;76;21062;-60
2021/12/02 09:33:15;;;;;;;2.80;1.10;;;;;;;11.42;54.05;101375.95;1884291;76;21129;-59
2021/12/02 09:35:44;;;;;;;3.47;1.95;;;;;;;11.73;53.54;101372.28;1879604;76;21482;-60
2021/12/02 09:38:13;;;;;;;2.83;1.15;;;;;;;12.80;51.82;101379.95;1874195;76;21107;-60
2021/12/02 09:40:42;;;;;;;3.15;1.00;;;;;;;14.70;48.19;101369.84;1872495;77;21083;-60
2021/12/02 09:43:11;;;;;;;5.78;1.00;;;;;;;15.17;46.33;101371.16;1872692;77;21048;-61
2021/12/02 09:45:41;;;;;;;4.53;1.05;;;;;;;15.92;44.83;101369.27;1872575;77;21470;-60
2021/12/02 09:48:11;;;;;;;2.58;1.17;;;;;;;16.75;42.90;101366.18;1883391;76;21047;-59
2021/12/02 09:50:53;;;;;;;1.75;0.90;;;;;;;16.26;43.82;101368.34;1885259;76;21047;-61
2021/12/02 09:53:15;;;;;;;1.85;0.75;;;;;;;15.25;45.24;101375.61;1881086;76;21220;-60
2021/12/02 09:55:49;;;;;;;1.75;0.70;;;;;;;14.31;47.17;101371.12;1885208;76;21047;-60
2021/12/02 09:58:26;;;;;;;4.67;1.05;;;;;;;15.09;46.13;101363.58;1884425;76;21072;-59
2021/12/02 10:01:55;;;;;;;2.33;0.75;;;;;;;14.07;47.22;101365.54;1884866;76;21023;-60
2021/12/02 10:03:33;;;;;;;1.72;0.90;;;;;;;13.11;48.90;101367.28;1855042;76;21571;-60
2021/12/02 10:06:18;;;;;;;2.65;1.20;;;;;;;12.77;49.92;101365.55;1885084;76;21257;-59
2021/12/02 10:08:55;;;;;;;0.93;0.60;;;;;;;12.70;50.07;101371.05;1885065;76;21133;-60
2021/12/02 10:11:32;;;;;;;2.90;0.60;;;;;;;12.46;50.63;101367.55;1885254;76;21130;-59
2021/12/02 10:14:29;;;;;;;1.67;0.90;;;;;;;12.13;51.25;101361.71;1885061;76;21067;-60
2021/12/02 10:17:07;;;;;;;2.70;0.93;;;;;;;11.85;52.04;101365.28;1884753;76;21048;-59
2021/12/02 10:19:36;;;;;;;3.42;0.80;;;;;;;11.67;52.54;101361.95;1884611;76;21056;-59
2021/12/02 10:22:08;;;;;;;3.17;1.30;;;;;;;11.83;52.52;101367.11;1885342;76;21044;-59
2021/12/02 10:24:44;;;;;;;5.00;0.98;;;;;;;14.01;48.68;101364.94;1885174;76;21028;-59
2021/12/02 10:27:13;;;;;;;2.35;1.12;;;;;;;15.75;45.01;101357.70;1885217;76;21027;-59
2021/12/02 10:29:46;;;;;;;2.42;0.70;;;;;;;16.97;42.02;101354.76;1887080;75;21095;-59
2021/12/02 10:32:19;;;;;;;2.77;0.80;;;;;;;17.65;40.46;101345.55;1878992;76;21112;-59
2021/12/02 10:34:57;;;;;;;3.25;0.80;;;;;;;17.65;40.02;101334.91;1878187;76;21047;-60
2021/12/02 10:37:31;;;;;;;11.88;1.20;;;;;;;17.27;40.53;101339.80;1878551;76;21044;-58
2021/12/02 10:40:03;;;;;;;8.48;1.60;;;;;;;16.59;41.08;101340.41;1877736;76;21074;-58
2021/12/02 10:42:33;;;;;;;3.22;1.00;;;;;;;15.28;43.23;101338.34;1886882;75;21485;-57
2021/12/02 10:45:04;;;;;;;4.35;1.30;;;;;;;14.02;44.91;101330.92;1886992;76;21046;-58
2021/12/02 10:47:34;;;;;;;3.35;1.10;;;;;;;13.23;45.88;101346.09;1886854;76;21042;-60
2021/12/02 10:50:09;;;;;;;3.90;0.82;;;;;;;14.87;43.09;101327.95;1886977;76;21191;-59
2021/12/02 10:52:38;;;;;;;1.32;0.60;;;;;;;15.62;41.75;101330.00;1886857;76;21128;-59
2021/12/02 10:55:21;;;;;;;2.90;1.00;;;;;;;14.52;43.45;101330.42;1886869;76;21034;-60
2021/12/02 10:57:52;;;;;;;8.95;1.02;;;;;;;13.55;45.05;101332.49;1886943;76;21049;-59
2021/12/02 11:00:24;;;;;;;3.45;0.55;;;;;;;12.81;46.52;101338.93;1887610;75;21069;-59
2021/12/02 11:02:56;;;;;;;1.05;0.60;;;;;;;12.21;47.54;101335.91;1888614;76;21073;-60
2021/12/02 11:05:29;;;;;;;3.58;0.90;;;;;;;11.87;48.47;101333.10;1888808;75;21097;-58
2021/12/02 11:08:06;;;;;;;3.55;0.95;;;;;;;11.69;49.13;101345.17;1886929;76;21046;-57
2021/12/02 11:10:38;;;;;;;1.87;0.75;;;;;;;11.88;49.18;101350.67;1885947;76;21222;-59
2021/12/02 11:13:08;;;;;;;0.95;0.50;;;;;;;13.11;46.66;101342.17;1881487;75;21502;-59
2021/12/02 11:15:40;;;;;;;0.62;0.40;;;;;;;13.22;46.41;101351.44;1879114;76;21064;-57
2021/12/02 11:18:16;;;;;;;1.67;0.65;;;;;;;14.51;44.04;101340.62;1876073;76;21110;-60
2021/12/02 11:20:51;;;;;;;4.83;0.90;;;;;;;15.33;42.14;101341.63;1886420;75;21172;-58
2021/12/02 11:23:28;;;;;;;2.60;0.70;;;;;;;15.56;41.59;101347.58;1886763;76;21046;-58
2021/12/02 11:26:05;;;;;;;3.05;0.80;;;;;;;15.23;41.48;101366.88;1876976;76;21036;-58
2021/12/02 11:28:37;;;;;;;3.15;0.90;;;;;;;13.78;44.00;101350.91;1882872;76;21159;-57
2021/12/02 11:31:18;;;;;;;1.67;0.53;;;;;;;13.93;43.75;101351.19;1891773;76;21082;-57
2021/12/02 11:33:49;;;;;;;1.92;0.70;;;;;;;14.59;42.83;101357.08;1891926;76;21046;-57
2021/12/02 11:36:22;;;;;;;2.98;0.70;;;;;;;14.56;42.46;101349.70;1881201;76;21076;-57
2021/12/02 11:38:52;;;;;;;1.10;0.60;;;;;;;13.54;44.35;101351.92;1881380;76;21075;-58
2021/12/02 11:41:22;;;;;;;1.05;0.60;;;;;;;13.83;44.12;101363.49;1881305;76;21142;-58
2021/12/02 11:43:53;;;;;;;2.40;0.90;;;;;;;13.76;44.37;101360.70;1881207;76;21039;-63
2021/12/02 11:46:22;;;;;;;2.25;0.80;;;;;;;14.04;44.16;101343.62;1881866;76;21133;-62
2021/12/02 11:48:52;;;;;;;6.72;1.52;;;;;;;13.33;45.30;101359.83;1881195;76;21141;-62
2021/12/02 11:51:23;;;;;;;2.15;0.62;;;;;;;13.27;45.87;101350.32;1881952;76;21482;-60
2021/12/02 11:53:52;;;;;;;1.45;0.50;;;;;;;13.75;44.57;101352.35;1885763;76;21014;-61
2021/12/02 11:56:22;;;;;;;3.40;0.70;;;;;;;13.83;44.44;101342.31;1893307;74;21133;-61
2021/12/02 11:58:54;;;;;;;1.35;0.70;;;;;;;13.50;44.63;101344.58;1894671;74;21116;-60